Time;durP1;ratioP1;P1;durP2;ratioP2;P2;SDS_P1;SDS_P2;PMS_P1;PMS_P2;Temp;Humidity;BMP_temperature;BMP_pressure;BME280_temperature;BME280_humidity;BME280_pressure;Samples;Min_cycle;Max_cycle;Signal;HPM_P1;HPM_P2
2022/10/27 00:02:20;;;;;;;18.95;10.35;;;;;;;;;;4935881;29;20443;-71
2022/10/27 00:04:47;;;;;;;20.40;11.52;;;;;;;;;;4935733;29;20591;-71
2022/10/27 00:07:14;;;;;;;20.23;10.23;;;;;;;;;;4935774;29;20123;-71
2022/10/27 00:09:42;;;;;;;19.23;10.13;;;;;;;;;;4935675;29;20130;-71
2022/10/27 00:12:09;;;;;;;21.35;10.13;;;;;;;;;;4935722;29;20506;-72
2022/10/27 00:14:37;;;;;;;18.80;10.20;;;;;;;;;;4935610;29;20067;-71
2022/10/27 00:17:04;;;;;;;22.67;10.98;;;;;;;;;;4935660;29;20091;-72
2022/10/27 00:19:31;;;;;;;18.35;10.48;;;;;;;;;;4934478;29;20130;-71
2022/10/27 00:21:59;;;;;;;17.45;10.20;;;;;;;;;;4935568;29;20402;-71
2022/10/27 00:24:27;;;;;;;17.83;9.65;;;;;;;;;;4935801;29;20127;-71
2022/10/27 00:26:54;;;;;;;20.42;10.55;;;;;;;;;;4934688;29;20048;-72
2022/10/27 00:29:21;;;;;;;18.05;10.50;;;;;;;;;;4934245;29;20099;-72
2022/10/27 00:31:49;;;;;;;15.77;9.95;;;;;;;;;;4935433;29;20471;-71
2022/10/27 00:34:16;;;;;;;19.15;9.90;;;;;;;;;;4935314;29;20478;-72
2022/10/27 00:36:44;;;;;;;18.30;10.80;;;;;;;;;;4935471;29;20071;-71
2022/10/27 00:39:11;;;;;;;18.40;10.23;;;;;;;;;;4935408;29;20091;-72
2022/10/27 00:41:40;;;;;;;21.75;9.90;;;;;;;;;;4935409;29;20128;-71
2022/10/27 00:44:46;;;;;;;19.83;10.82;;;;;;;;;;4935350;29;20557;-72
2022/10/27 00:47:13;;;;;;;20.58;10.75;;;;;;;;;;4876597;29;20053;-72
2022/10/27 00:50:01;;;;;;;18.88;10.82;;;;;;;;;;4876628;29;20076;-71
2022/10/27 00:52:31;;;;;;;19.20;10.48;;;;;;;;;;4913419;29;20106;-71
2022/10/27 00:55:01;;;;;;;21.63;10.65;;;;;;;;;;4935143;29;20128;-71
2022/10/27 00:57:30;;;;;;;15.68;10.18;;;;;;;;;;4935303;29;20091;-71
2022/10/27 00:59:59;;;;;;;15.43;10.13;;;;;;;;;;4935184;29;20071;-71
2022/10/27 01:02:26;;;;;;;18.02;10.23;;;;;;;;;;4935271;29;20458;-71
2022/10/27 01:05:00;;;;;;;16.70;10.13;;;;;;;;;;4935217;29;20127;-71
2022/10/27 01:07:28;;;;;;;17.85;10.68;;;;;;;;;;4935214;29;20521;-71
2022/10/27 01:09:56;;;;;;;18.70;10.80;;;;;;;;;;4934929;29;20231;-72
2022/10/27 01:12:23;;;;;;;18.83;10.10;;;;;;;;;;4935025;29;20048;-71
2022/10/27 01:14:51;;;;;;;18.38;10.75;;;;;;;;;;4934968;29;20067;-72
2022/10/27 01:17:21;;;;;;;18.17;10.90;;;;;;;;;;4935331;29;20390;-71
2022/10/27 01:20:07;;;;;;;17.88;10.68;;;;;;;;;;4934895;29;20044;-71
2022/10/27 01:22:45;;;;;;;22.52;10.07;;;;;;;;;;4934963;29;20048;-72
2022/10/27 01:25:25;;;;;;;18.17;10.73;;;;;;;;;;4935012;29;20044;-71
2022/10/27 01:28:11;;;;;;;19.70;11.05;;;;;;;;;;4934946;29;20123;-71
2022/10/27 01:30:55;;;;;;;18.25;11.13;;;;;;;;;;4934999;29;20510;-71
2022/10/27 01:33:27;;;;;;;16.73;9.98;;;;;;;;;;4934605;29;20134;-71
2022/10/27 01:35:57;;;;;;;16.40;9.77;;;;;;;;;;4933492;29;20047;-71
2022/10/27 01:38:32;;;;;;;18.90;10.32;;;;;;;;;;4937968;29;20126;-71
2022/10/27 01:41:00;;;;;;;17.17;10.60;;;;;;;;;;4938517;29;20501;-71
2022/10/27 01:43:32;;;;;;;20.05;10.85;;;;;;;;;;4938327;29;20044;-71
2022/10/27 01:46:09;;;;;;;18.65;10.68;;;;;;;;;;4937007;29;20067;-71
2022/10/27 01:48:37;;;;;;;21.40;10.85;;;;;;;;;;4938302;29;20067;-71
2022/10/27 01:51:06;;;;;;;20.85;10.70;;;;;;;;;;4938131;29;20042;-71
2022/10/27 01:53:35;;;;;;;20.23;11.13;;;;;;;;;;4938172;29;20050;-71
2022/10/27 01:56:02;;;;;;;18.85;10.30;;;;;;;;;;4937910;29;20135;-71
2022/10/27 01:58:36;;;;;;;17.90;10.25;;;;;;;;;;4938128;29;20035;-71
2022/10/27 02:01:22;;;;;;;17.40;10.43;;;;;;;;;;4938149;29;20052;-71
2022/10/27 02:03:53;;;;;;;17.08;9.55;;;;;;;;;;4938093;29;20049;-71
2022/10/27 02:06:25;;;;;;;14.68;9.90;;;;;;;;;;4937933;29;20043;-71
2022/10/27 02:08:56;;;;;;;18.58;9.70;;;;;;;;;;4937945;29;20123;-71
2022/10/27 02:11:25;;;;;;;18.95;10.00;;;;;;;;;;4937705;29;20035;-71
2022/10/27 02:13:52;;;;;;;21.33;10.18;;;;;;;;;;4937816;29;20126;-71
2022/10/27 02:16:24;;;;;;;19.17;11.00;;;;;;;;;;4937645;29;20159;-71
2022/10/27 02:19:06;;;;;;;16.63;10.23;;;;;;;;;;4937758;29;20050;-71
2022/10/27 02:21:35;;;;;;;19.35;10.35;;;;;;;;;;4936300;29;20051;-71
2022/10/27 02:24:04;;;;;;;17.38;10.63;;;;;;;;;;4937525;29;20180;-71
2022/10/27 02:26:46;;;;;;;18.42;10.25;;;;;;;;;;4937596;29;20048;-71
2022/10/27 02:29:20;;;;;;;16.80;9.98;;;;;;;;;;4937586;29;20058;-71
2022/10/27 02:31:49;;;;;;;17.65;10.30;;;;;;;;;;4937471;29;20505;-71
2022/10/27 02:34:17;;;;;;;21.83;10.65;;;;;;;;;;4937380;29;20135;-71
2022/10/27 02:36:45;;;;;;;18.23;10.35;;;;;;;;;;4937220;29;20047;-71
2022/10/27 02:39:12;;;;;;;20.33;10.98;;;;;;;;;;4937371;29;20123;-71
2022/10/27 02:41:39;;;;;;;19.33;10.57;;;;;;;;;;4937198;29;20047;-71
2022/10/27 02:44:07;;;;;;;15.95;10.02;;;;;;;;;;4937292;29;20071;-71
2022/10/27 02:46:34;;;;;;;19.17;10.57;;;;;;;;;;4937135;29;20452;-71
2022/10/27 02:49:02;;;;;;;16.73;9.80;;;;;;;;;;4935142;29;20075;-71
2022/10/27 02:51:29;;;;;;;16.35;10.23;;;;;;;;;;4937167;29;20043;-72
2022/10/27 02:53:57;;;;;;;18.85;10.77;;;;;;;;;;4937040;29;20114;-71
2022/10/27 02:56:24;;;;;;;18.67;10.07;;;;;;;;;;4935632;29;20410;-71
2022/10/27 02:58:51;;;;;;;16.23;9.77;;;;;;;;;;4937046;29;20122;-72
2022/10/27 03:01:19;;;;;;;17.30;10.48;;;;;;;;;;4921288;29;20491;-72
2022/10/27 03:03:46;;;;;;;19.23;10.25;;;;;;;;;;4917984;29;20051;-71
2022/10/27 03:06:14;;;;;;;20.58;10.00;;;;;;;;;;4917991;29;20111;-72
2022/10/27 03:08:41;;;;;;;20.35;10.15;;;;;;;;;;4917846;29;20067;-71
2022/10/27 03:11:08;;;;;;;17.20;10.43;;;;;;;;;;4917830;29;20072;-71
2022/10/27 03:13:36;;;;;;;18.50;10.48;;;;;;;;;;4917861;29;20040;-71
2022/10/27 03:16:03;;;;;;;16.90;10.13;;;;;;;;;;4917868;29;20442;-71
2022/10/27 03:18:31;;;;;;;19.80;11.80;;;;;;;;;;4917878;29;20392;-71
2022/10/27 03:20:58;;;;;;;17.83;10.63;;;;;;;;;;4917494;29;20048;-71
2022/10/27 03:23:25;;;;;;;18.67;10.05;;;;;;;;;;4917455;29;20407;-71
2022/10/27 03:25:53;;;;;;;20.27;11.13;;;;;;;;;;4917423;29;20047;-71
2022/10/27 03:28:29;;;;;;;18.08;10.35;;;;;;;;;;4917384;29;20051;-71
2022/10/27 03:30:56;;;;;;;20.20;10.30;;;;;;;;;;4917201;29;20447;-72
2022/10/27 03:33:23;;;;;;;17.98;10.55;;;;;;;;;;4917198;29;20052;-72
2022/10/27 03:35:51;;;;;;;21.15;10.90;;;;;;;;;;4917250;29;20048;-71
2022/10/27 03:38:18;;;;;;;16.33;10.48;;;;;;;;;;4917055;29;20044;-71
2022/10/27 03:40:46;;;;;;;16.50;10.20;;;;;;;;;;4917309;29;20456;-71
2022/10/27 03:43:13;;;;;;;17.30;10.50;;;;;;;;;;4917106;29;20048;-72
2022/10/27 03:45:41;;;;;;;16.40;10.57;;;;;;;;;;4917230;29;20505;-72
2022/10/27 03:48:12;;;;;;;18.88;10.02;;;;;;;;;;4917213;29;20036;-72
2022/10/27 03:50:39;;;;;;;22.23;10.35;;;;;;;;;;4917057;29;20143;-72
2022/10/27 03:53:07;;;;;;;19.10;10.20;;;;;;;;;;4916622;29;20485;-72
2022/10/27 03:55:35;;;;;;;19.80;10.32;;;;;;;;;;4916874;29;20131;-72
2022/10/27 03:58:02;;;;;;;18.98;10.10;;;;;;;;;;4915887;29;20054;-72
2022/10/27 04:00:31;;;;;;;19.02;10.50;;;;;;;;;;4915657;29;20582;-72
2022/10/27 04:02:59;;;;;;;21.80;11.23;;;;;;;;;;4916888;29;20395;-72
2022/10/27 04:05:26;;;;;;;19.45;11.13;;;;;;;;;;4916941;29;20103;-72
2022/10/27 04:07:54;;;;;;;24.63;12.40;;;;;;;;;;4916653;29;20044;-72
2022/10/27 04:10:21;;;;;;;24.73;12.02;;;;;;;;;;4916772;29;20048;-72
2022/10/27 04:12:49;;;;;;;19.17;11.13;;;;;;;;;;4916643;29;20075;-72
2022/10/27 04:15:18;;;;;;;25.10;11.30;;;;;;;;;;4916668;29;20099;-72
2022/10/27 04:17:46;;;;;;;19.23;11.18;;;;;;;;;;4917001;29;20406;-72
2022/10/27 04:20:13;;;;;;;20.27;10.45;;;;;;;;;;4916689;29;20046;-72
2022/10/27 04:22:41;;;;;;;17.70;10.50;;;;;;;;;;4916629;29;20048;-71
2022/10/27 04:25:08;;;;;;;20.00;10.68;;;;;;;;;;4916590;29;20480;-71
2022/10/27 04:27:36;;;;;;;18.20;10.88;;;;;;;;;;4916989;29;20043;-71
2022/10/27 04:30:03;;;;;;;25.20;10.77;;;;;;;;;;4915438;29;20122;-72
2022/10/27 04:32:31;;;;;;;17.23;10.10;;;;;;;;;;4915549;29;20048;-72
2022/10/27 04:34:58;;;;;;;19.25;10.68;;;;;;;;;;4915505;29;20518;-72
2022/10/27 04:37:26;;;;;;;21.42;11.15;;;;;;;;;;4916183;29;20064;-72
2022/10/27 04:39:53;;;;;;;27.00;13.50;;;;;;;;;;4916202;29;20127;-72
2022/10/27 04:42:20;;;;;;;26.88;12.07;;;;;;;;;;4916140;29;20066;-72
2022/10/27 04:44:48;;;;;;;19.92;11.52;;;;;;;;;;4916392;29;20444;-72
2022/10/27 04:47:15;;;;;;;23.40;12.45;;;;;;;;;;4916212;29;20055;-72
2022/10/27 04:49:43;;;;;;;27.42;14.38;;;;;;;;;;4916242;29;20067;-73
2022/10/27 04:52:10;;;;;;;22.55;14.13;;;;;;;;;;4916346;29;20522;-73
2022/10/27 04:54:38;;;;;;;24.98;15.75;;;;;;;;;;4916306;29;20074;-71
2022/10/27 04:57:06;;;;;;;22.23;11.88;;;;;;;;;;4915898;29;20052;-71
2022/10/27 04:59:33;;;;;;;25.33;12.55;;;;;;;;;;4916068;29;20072;-70
2022/10/27 05:02:00;;;;;;;23.50;13.68;;;;;;;;;;4915818;29;20048;-70
2022/10/27 05:04:28;;;;;;;43.80;13.75;;;;;;;;;;4916168;29;20044;-69
2022/10/27 05:06:55;;;;;;;22.58;13.00;;;;;;;;;;4916187;29;20443;-69
2022/10/27 05:09:23;;;;;;;29.63;12.60;;;;;;;;;;4916262;29;20127;-69
2022/10/27 05:11:50;;;;;;;30.08;14.43;;;;;;;;;;4917015;29;20606;-69
2022/10/27 05:14:18;;;;;;;25.50;15.65;;;;;;;;;;4920098;29;20100;-69
2022/10/27 05:16:45;;;;;;;26.10;15.38;;;;;;;;;;4919907;29;20563;-69
2022/10/27 05:19:13;;;;;;;26.60;13.45;;;;;;;;;;4919925;29;20040;-69
2022/10/27 05:21:40;;;;;;;26.17;15.68;;;;;;;;;;4919900;29;20503;-69
2022/10/27 05:24:08;;;;;;;24.65;14.05;;;;;;;;;;4919842;29;20483;-69
2022/10/27 05:26:35;;;;;;;21.58;13.13;;;;;;;;;;4919766;29;20455;-70
2022/10/27 05:29:04;;;;;;;21.67;12.82;;;;;;;;;;4919739;29;20124;-69
2022/10/27 05:31:31;;;;;;;24.27;14.73;;;;;;;;;;4919765;29;20044;-69
2022/10/27 05:33:59;;;;;;;24.50;14.18;;;;;;;;;;4919489;29;20048;-69
2022/10/27 05:36:31;;;;;;;21.30;13.50;;;;;;;;;;4918420;29;20071;-69
2022/10/27 05:38:59;;;;;;;23.35;13.43;;;;;;;;;;4919753;29;20095;-69
2022/10/27 05:41:26;;;;;;;27.08;13.55;;;;;;;;;;4918238;29;20052;-69
2022/10/27 05:43:54;;;;;;;23.80;13.95;;;;;;;;;;4919438;29;20048;-69
2022/10/27 05:46:21;;;;;;;24.35;13.95;;;;;;;;;;4919395;29;20459;-69
2022/10/27 05:48:48;;;;;;;21.63;13.65;;;;;;;;;;4919377;29;20448;-69
2022/10/27 05:51:16;;;;;;;21.05;12.95;;;;;;;;;;4919323;29;20044;-69
2022/10/27 05:53:51;;;;;;;21.67;13.10;;;;;;;;;;4919555;29;20040;-69
2022/10/27 05:56:18;;;;;;;26.42;14.68;;;;;;;;;;4919234;29;20070;-70
2022/10/27 05:58:46;;;;;;;21.77;13.07;;;;;;;;;;4918036;29;20071;-70
2022/10/27 06:01:13;;;;;;;20.75;13.27;;;;;;;;;;4919448;29;20104;-70
2022/10/27 06:03:41;;;;;;;23.00;13.10;;;;;;;;;;4919212;29;20047;-69
2022/10/27 06:06:08;;;;;;;22.30;12.38;;;;;;;;;;4919263;29;20054;-69
2022/10/27 06:08:36;;;;;;;22.27;12.70;;;;;;;;;;4919371;29;20424;-69
2022/10/27 06:11:03;;;;;;;20.10;11.88;;;;;;;;;;4918932;29;20052;-69
2022/10/27 06:13:31;;;;;;;22.33;12.07;;;;;;;;;;4918898;29;20048;-70
2022/10/27 06:15:58;;;;;;;17.83;12.00;;;;;;;;;;4918775;29;20048;-69
2022/10/27 06:18:26;;;;;;;21.23;11.70;;;;;;;;;;4919002;29;20147;-70
2022/10/27 06:20:53;;;;;;;19.00;12.23;;;;;;;;;;4918718;29;20032;-69
2022/10/27 06:23:20;;;;;;;21.38;11.63;;;;;;;;;;4917378;29;20076;-70
2022/10/27 06:25:48;;;;;;;19.27;12.23;;;;;;;;;;4918653;29;20063;-70
2022/10/27 06:28:15;;;;;;;19.85;12.50;;;;;;;;;;4918603;29;20569;-70
2022/10/27 06:30:44;;;;;;;24.42;13.77;;;;;;;;;;4917473;29;20055;-71
2022/10/27 06:33:11;;;;;;;19.50;12.43;;;;;;;;;;4917341;29;20068;-71
2022/10/27 06:35:38;;;;;;;21.23;12.05;;;;;;;;;;4918679;29;20044;-71
2022/10/27 06:38:08;;;;;;;24.45;14.73;;;;;;;;;;4918510;29;20086;-71
2022/10/27 06:40:35;;;;;;;35.78;18.92;;;;;;;;;;4918514;29;20037;-71
2022/10/27 06:43:03;;;;;;;22.77;14.40;;;;;;;;;;4918429;29;20044;-71
2022/10/27 06:45:34;;;;;;;30.92;15.45;;;;;;;;;;4918321;29;20094;-70
2022/10/27 06:48:02;;;;;;;21.85;13.05;;;;;;;;;;4918299;29;20044;-70
2022/10/27 06:50:30;;;;;;;23.95;11.88;;;;;;;;;;4918318;29;20076;-70
2022/10/27 06:52:57;;;;;;;14.55;9.77;;;;;;;;;;4918225;29;20067;-70
2022/10/27 06:55:25;;;;;;;18.90;9.95;;;;;;;;;;4918069;29;20058;-70
2022/10/27 06:57:53;;;;;;;19.75;11.00;;;;;;;;;;4917974;29;20044;-70
2022/10/27 07:00:21;;;;;;;18.95;11.07;;;;;;;;;;4918026;29;20048;-70
2022/10/27 07:02:48;;;;;;;14.90;9.82;;;;;;;;;;4918043;29;20119;-70
2022/10/27 07:05:16;;;;;;;17.55;10.20;;;;;;;;;;4917976;29;20044;-70
2022/10/27 07:07:50;;;;;;;17.42;10.70;;;;;;;;;;4917963;29;20503;-70
2022/10/27 07:10:18;;;;;;;17.38;10.43;;;;;;;;;;4917905;29;20071;-70
2022/10/27 07:12:53;;;;;;;21.48;10.95;;;;;;;;;;4918056;29;20465;-70
2022/10/27 07:15:21;;;;;;;16.63;10.13;;;;;;;;;;4917880;29;20123;-69
2022/10/27 07:17:53;;;;;;;15.73;9.80;;;;;;;;;;4916431;29;20130;-70
2022/10/27 07:20:25;;;;;;;17.15;10.80;;;;;;;;;;4917749;29;20045;-69
2022/10/27 07:22:52;;;;;;;15.95;10.10;;;;;;;;;;4917607;29;20498;-69
2022/10/27 07:25:20;;;;;;;16.05;11.00;;;;;;;;;;4916288;29;20044;-70
2022/10/27 07:27:52;;;;;;;15.05;9.60;;;;;;;;;;4917523;29;20132;-69
2022/10/27 07:30:23;;;;;;;15.38;10.10;;;;;;;;;;4917607;29;20119;-69
2022/10/27 07:32:50;;;;;;;14.27;9.85;;;;;;;;;;4917338;29;20056;-69
2022/10/27 07:35:18;;;;;;;18.00;9.90;;;;;;;;;;4917032;29;20044;-69
2022/10/27 07:37:46;;;;;;;23.15;10.40;;;;;;;;;;4917308;29;20874;-69
2022/10/27 07:40:15;;;;;;;16.10;10.10;;;;;;;;;;4917252;29;20048;-69
2022/10/27 07:42:49;;;;;;;21.27;9.70;;;;;;;;;;4917357;29;20044;-71
2022/10/27 07:45:19;;;;;;;12.10;8.43;;;;;;;;;;4917156;29;20530;-69
2022/10/27 07:47:47;;;;;;;12.50;8.75;;;;;;;;;;4917412;29;20127;-69
2022/10/27 07:50:16;;;;;;;17.33;9.18;;;;;;;;;;4917409;29;20048;-69
2022/10/27 07:52:44;;;;;;;12.77;8.40;;;;;;;;;;4917044;29;20040;-69
2022/10/27 07:55:13;;;;;;;15.40;9.30;;;;;;;;;;4916962;29;20377;-69
2022/10/27 07:57:42;;;;;;;14.57;8.82;;;;;;;;;;4916854;29;20074;-69
2022/10/27 08:00:14;;;;;;;12.63;8.75;;;;;;;;;;4916864;29;20443;-69
2022/10/27 08:02:41;;;;;;;14.20;9.05;;;;;;;;;;4916842;29;20052;-69
2022/10/27 08:05:10;;;;;;;13.02;8.43;;;;;;;;;;4916976;29;20115;-69
2022/10/27 08:07:37;;;;;;;13.45;8.52;;;;;;;;;;4916806;29;20044;-69
2022/10/27 08:10:05;;;;;;;12.90;8.27;;;;;;;;;;4931344;29;20040;-69
2022/10/27 08:12:33;;;;;;;17.02;9.40;;;;;;;;;;4916827;29;20044;-69
2022/10/27 08:15:00;;;;;;;15.38;9.50;;;;;;;;;;4916841;29;20036;-69
2022/10/27 08:17:29;;;;;;;13.75;8.48;;;;;;;;;;4916692;29;20139;-70
2022/10/27 08:19:56;;;;;;;15.02;8.85;;;;;;;;;;4916686;29;20046;-70
2022/10/27 08:22:23;;;;;;;14.35;8.48;;;;;;;;;;4916969;29;20119;-69
2022/10/27 08:24:51;;;;;;;12.82;8.23;;;;;;;;;;4916644;29;20047;-70
2022/10/27 08:27:19;;;;;;;9.75;7.32;;;;;;;;;;4916941;29;20471;-69
2022/10/27 08:29:47;;;;;;;10.75;7.90;;;;;;;;;;4916587;29;20422;-69
2022/10/27 08:32:15;;;;;;;9.98;6.03;;;;;;;;;;4930780;29;20068;-69
2022/10/27 08:34:42;;;;;;;9.55;6.50;;;;;;;;;;4916492;29;20043;-69
2022/10/27 08:37:15;;;;;;;8.82;6.47;;;;;;;;;;4916351;29;20047;-69
2022/10/27 08:39:42;;;;;;;6.95;5.13;;;;;;;;;;4916473;29;20119;-70
2022/10/27 08:42:10;;;;;;;11.85;5.85;;;;;;;;;;4916491;29;20522;-70
2022/10/27 08:44:41;;;;;;;10.15;5.18;;;;;;;;;;4916687;29;20040;-69
2022/10/27 08:47:26;;;;;;;9.88;5.30;;;;;;;;;;4930144;29;20052;-70
2022/10/27 08:50:00;;;;;;;9.05;4.82;;;;;;;;;;4916375;29;20051;-70
2022/10/27 08:52:29;;;;;;;8.98;5.13;;;;;;;;;;4916278;29;20054;-70
2022/10/27 08:55:17;;;;;;;9.00;6.05;;;;;;;;;;4916339;29;20116;-70
2022/10/27 08:57:52;;;;;;;12.38;4.90;;;;;;;;;;4912403;29;20059;-70
2022/10/27 09:00:20;;;;;;;8.43;4.97;;;;;;;;;;4916525;29;20112;-70
2022/10/27 09:02:47;;;;;;;10.68;5.22;;;;;;;;;;4916227;29;20044;-70
2022/10/27 09:05:15;;;;;;;9.77;5.50;;;;;;;;;;4916187;29;20067;-70
2022/10/27 09:08:09;;;;;;;13.32;6.18;;;;;;;;;;4916440;29;20048;-70
2022/10/27 09:10:42;;;;;;;20.90;10.98;;;;;;;;;;4915230;29;20056;-69
2022/10/27 09:13:10;;;;;;;32.15;18.80;;;;;;;;;;4916050;29;20040;-71
2022/10/27 09:15:42;;;;;;;23.08;11.98;;;;;;;;;;4916421;29;20123;-68
2022/10/27 09:18:21;;;;;;;10.45;6.63;;;;;;;;;;4915945;29;20048;-69
2022/10/27 09:20:51;;;;;;;14.93;7.82;;;;;;;;;;4916026;29;20051;-68
2022/10/27 09:23:24;;;;;;;25.77;10.60;;;;;;;;;;4915740;29;20131;-69
2022/10/27 09:25:53;;;;;;;12.27;6.30;;;;;;;;;;4915989;29;20301;-69
2022/10/27 09:28:45;;;;;;;11.70;5.40;;;;;;;;;;4916022;29;20127;-69
2022/10/27 09:31:15;;;;;;;18.77;8.65;;;;;;;;;;4913513;29;20060;-69
2022/10/27 09:33:49;;;;;;;23.23;10.68;;;;;;;;;;4915844;29;20135;-71
2022/10/27 09:36:19;;;;;;;19.88;9.15;;;;;;;;;;4915902;29;20059;-70
2022/10/27 09:38:47;;;;;;;9.73;5.38;;;;;;;;;;4916032;29;20403;-69
2022/10/27 09:41:15;;;;;;;7.30;5.47;;;;;;;;;;4915879;29;20138;-70
2022/10/27 09:43:42;;;;;;;9.43;5.00;;;;;;;;;;4915727;29;20458;-69
2022/10/27 09:46:12;;;;;;;10.40;5.40;;;;;;;;;;4915690;29;20048;-70
2022/10/27 09:48:40;;;;;;;11.27;7.47;;;;;;;;;;4915737;29;20052;-69
2022/10/27 09:51:07;;;;;;;9.50;5.15;;;;;;;;;;4915795;29;20119;-69
2022/10/27 09:53:42;;;;;;;6.75;4.90;;;;;;;;;;4915711;29;20052;-69
2022/10/27 09:56:29;;;;;;;16.27;7.03;;;;;;;;;;4915774;29;20050;-69
2022/10/27 09:59:01;;;;;;;13.43;8.95;;;;;;;;;;4917859;29;20407;-69
2022/10/27 10:01:34;;;;;;;11.25;6.28;;;;;;;;;;4919047;29;20056;-69
2022/10/27 10:04:05;;;;;;;11.45;5.10;;;;;;;;;;4918943;29;20036;-69
2022/10/27 10:06:39;;;;;;;14.48;7.50;;;;;;;;;;4933001;29;20044;-70
2022/10/27 10:09:21;;;;;;;14.40;8.25;;;;;;;;;;4918955;29;20159;-70
2022/10/27 10:11:49;;;;;;;11.25;5.18;;;;;;;;;;4918908;29;20059;-70
2022/10/27 10:14:21;;;;;;;9.63;5.53;;;;;;;;;;4918967;29;20072;-69
2022/10/27 10:16:49;;;;;;;18.08;5.00;;;;;;;;;;4918798;29;20052;-69
2022/10/27 10:19:18;;;;;;;8.88;4.75;;;;;;;;;;4918783;29;20127;-69
2022/10/27 10:21:55;;;;;;;6.13;4.38;;;;;;;;;;4918813;29;20044;-71
2022/10/27 10:24:33;;;;;;;5.97;4.25;;;;;;;;;;4918653;29;20044;-69
2022/10/27 10:27:01;;;;;;;7.90;4.93;;;;;;;;;;4918757;29;20051;-69
2022/10/27 10:29:38;;;;;;;10.40;4.80;;;;;;;;;;4918623;29;20075;-70
2022/10/27 10:32:12;;;;;;;12.55;5.60;;;;;;;;;;4918408;29;20040;-69
2022/10/27 10:34:42;;;;;;;9.90;3.35;;;;;;;;;;4918712;29;20674;-69
2022/10/27 10:37:32;;;;;;;8.38;4.22;;;;;;;;;;4918557;29;20048;-71
2022/10/27 10:40:17;;;;;;;17.80;6.18;;;;;;;;;;4915835;29;20130;-70
2022/10/27 10:42:45;;;;;;;;;;;;;;;;;;4919087;29;20044;-69
2022/10/27 10:45:18;;;;;;;15.10;5.97;;;;;;;;;;4918462;29;19929;-69
2022/10/27 10:47:47;;;;;;;20.48;10.35;;;;;;;;;;4918295;29;20040;-69
2022/10/27 10:50:15;;;;;;;12.80;6.10;;;;;;;;;;4917111;29;20036;-69
2022/10/27 10:52:49;;;;;;;13.15;6.30;;;;;;;;;;4918422;29;20044;-69
2022/10/27 10:55:17;;;;;;;10.55;5.10;;;;;;;;;;4918146;29;20096;-69
2022/10/27 10:57:47;;;;;;;4.97;3.45;;;;;;;;;;4918075;29;20447;-70
2022/10/27 11:00:18;;;;;;;6.10;3.00;;;;;;;;;;4918084;29;20046;-69
2022/10/27 11:02:58;;;;;;;4.55;3.20;;;;;;;;;;4917992;29;20048;-70
2022/10/27 11:05:30;;;;;;;12.40;6.68;;;;;;;;;;4916900;29;20052;-69
2022/10/27 11:07:58;;;;;;;12.00;3.78;;;;;;;;;;4917978;29;20079;-69
2022/10/27 11:10:29;;;;;;;7.05;4.57;;;;;;;;;;4917174;29;20044;-69
2022/10/27 11:13:05;;;;;;;18.15;10.43;;;;;;;;;;4917922;29;20103;-69
2022/10/27 11:15:48;;;;;;;5.47;3.03;;;;;;;;;;4917734;29;20043;-69
2022/10/27 11:18:22;;;;;;;8.88;3.13;;;;;;;;;;4917573;29;20387;-69
2022/10/27 11:20:52;;;;;;;5.82;2.65;;;;;;;;;;4917722;29;20047;-69
2022/10/27 11:23:40;;;;;;;4.60;2.60;;;;;;;;;;4917853;29;20072;-69
2022/10/27 11:26:09;;;;;;;4.80;2.60;;;;;;;;;;4917759;29;20138;-70
2022/10/27 11:28:36;;;;;;;4.68;2.53;;;;;;;;;;4917545;29;20071;-70
2022/10/27 11:31:07;;;;;;;5.40;2.80;;;;;;;;;;4917469;29;20043;-71
2022/10/27 11:33:57;;;;;;;4.85;2.35;;;;;;;;;;4916227;29;20063;-71
2022/10/27 11:36:32;;;;;;;4.43;2.70;;;;;;;;;;4917657;29;20044;-71
2022/10/27 11:38:59;;;;;;;;;;;;;;;;;;4917868;29;20059;-71
2022/10/27 11:41:38;;;;;;;5.88;2.70;;;;;;;;;;4917438;29;20009;-71
2022/10/27 11:44:06;;;;;;;9.80;4.28;;;;;;;;;;4917276;29;20044;-71
2022/10/27 11:47:08;;;;;;;6.32;3.22;;;;;;;;;;4917404;29;20043;-71
2022/10/27 11:49:48;;;;;;;9.55;3.20;;;;;;;;;;4905915;29;20091;-70
2022/10/27 11:52:25;;;;;;;4.15;2.30;;;;;;;;;;4917228;29;20046;-71
2022/10/27 11:54:53;;;;;;;3.45;2.42;;;;;;;;;;4917038;29;20060;-71
2022/10/27 11:57:26;;;;;;;5.10;2.72;;;;;;;;;;4916963;29;20091;-71
2022/10/27 12:00:05;;;;;;;;;;;;;;;;;;4917673;29;20040;-71
2022/10/27 12:02:44;;;;;;;6.35;2.70;;;;;;;;;;4916986;29;19923;-71
2022/10/27 12:05:14;;;;;;;5.18;2.90;;;;;;;;;;4917004;29;20071;-71
2022/10/27 12:07:51;;;;;;;4.28;2.40;;;;;;;;;;4916880;29;20047;-71
2022/10/27 12:10:24;;;;;;;8.43;2.80;;;;;;;;;;4917108;29;20047;-71
2022/10/27 12:12:59;;;;;;;4.68;3.00;;;;;;;;;;4916878;29;20047;-71
2022/10/27 12:15:39;;;;;;;6.55;2.60;;;;;;;;;;4916820;29;20142;-70
2022/10/27 12:18:25;;;;;;;4.97;2.67;;;;;;;;;;4916713;29;20479;-70
2022/10/27 12:20:56;;;;;;;3.05;2.35;;;;;;;;;;4916932;29;20055;-70
2022/10/27 12:23:29;;;;;;;3.63;2.50;;;;;;;;;;4916716;29;20036;-69
2022/10/27 12:26:09;;;;;;;4.55;2.53;;;;;;;;;;4916518;29;20384;-70
2022/10/27 12:28:37;;;;;;;5.18;2.65;;;;;;;;;;4916861;29;20415;-70
2022/10/27 12:31:07;;;;;;;5.88;3.20;;;;;;;;;;4916756;29;20075;-70
2022/10/27 12:33:38;;;;;;;7.03;2.75;;;;;;;;;;4916987;29;20104;-70
2022/10/27 12:36:18;;;;;;;6.55;2.97;;;;;;;;;;4916469;29;20036;-70
2022/10/27 12:38:57;;;;;;;6.95;2.65;;;;;;;;;;4916512;29;20574;-70
2022/10/27 12:41:34;;;;;;;6.45;3.00;;;;;;;;;;4916411;29;20051;-70
2022/10/27 12:44:07;;;;;;;7.45;3.80;;;;;;;;;;4916410;29;20044;-70
2022/10/27 12:46:55;;;;;;;8.20;4.50;;;;;;;;;;4916383;29;20047;-70
2022/10/27 12:49:22;;;;;;;10.18;2.97;;;;;;;;;;4906081;29;20053;-70
2022/10/27 12:51:56;;;;;;;6.03;2.80;;;;;;;;;;4916594;29;20135;-70
2022/10/27 12:54:36;;;;;;;4.95;3.40;;;;;;;;;;4916331;29;20047;-70
2022/10/27 12:57:17;;;;;;;7.18;4.35;;;;;;;;;;4916322;29;20071;-70
2022/10/27 12:59:59;;;;;;;4.82;2.85;;;;;;;;;;4916164;29;20075;-70
2022/10/27 13:02:30;;;;;;;4.85;3.22;;;;;;;;;;4916143;29;20417;-70
2022/10/27 13:04:58;;;;;;;11.75;4.00;;;;;;;;;;4916322;29;20044;-71
2022/10/27 13:07:34;;;;;;;7.53;3.38;;;;;;;;;;4916253;29;20115;-70
2022/10/27 13:10:14;;;;;;;6.18;3.22;;;;;;;;;;4916200;29;20044;-70
2022/10/27 13:12:51;;;;;;;8.85;2.90;;;;;;;;;;4915757;29;20427;-72
2022/10/27 13:15:19;;;;;;;6.97;3.00;;;;;;;;;;4916203;29;20309;-72
2022/10/27 13:17:55;;;;;;;5.25;2.70;;;;;;;;;;4915776;29;20123;-72
2022/10/27 13:20:41;;;;;;;3.05;2.67;;;;;;;;;;4915777;29;20051;-72
2022/10/27 13:23:18;;;;;;;6.70;3.90;;;;;;;;;;4914653;29;20108;-72
2022/10/27 13:25:53;;;;;;;8.38;3.60;;;;;;;;;;4915329;29;20040;-72
2022/10/27 13:28:27;;;;;;;5.05;3.50;;;;;;;;;;4915898;29;20059;-72
2022/10/27 13:31:05;;;;;;;8.40;3.60;;;;;;;;;;4916206;29;20118;-72
2022/10/27 13:33:37;;;;;;;7.38;3.10;;;;;;;;;;4917770;29;20135;-72
2022/10/27 13:36:21;;;;;;;4.95;3.53;;;;;;;;;;4919613;29;20509;-72
2022/10/27 13:38:49;;;;;;;7.70;3.40;;;;;;;;;;4934122;29;20058;-72
2022/10/27 13:41:35;;;;;;;10.30;3.50;;;;;;;;;;4919493;29;20119;-72
2022/10/27 13:44:03;;;;;;;7.22;3.40;;;;;;;;;;4919365;29;20499;-70
2022/10/27 13:46:49;;;;;;;7.90;3.03;;;;;;;;;;4919263;29;20079;-70
2022/10/27 13:49:35;;;;;;;5.80;3.00;;;;;;;;;;4919493;29;20384;-71
2022/10/27 13:52:14;;;;;;;5.03;3.00;;;;;;;;;;4919305;29;20040;-72
2022/10/27 13:54:49;;;;;;;7.35;3.75;;;;;;;;;;4919282;29;20059;-72
2022/10/27 13:57:40;;;;;;;8.80;3.83;;;;;;;;;;4919275;29;20075;-72
2022/10/27 14:00:13;;;;;;;7.95;4.22;;;;;;;;;;4919070;29;20502;-72
2022/10/27 14:02:43;;;;;;;6.65;3.80;;;;;;;;;;4919238;29;20048;-72
2022/10/27 14:05:21;;;;;;;8.52;3.70;;;;;;;;;;4919173;29;20126;-72
2022/10/27 14:07:48;;;;;;;7.30;3.45;;;;;;;;;;4919201;29;20123;-72
2022/10/27 14:10:16;;;;;;;9.45;3.95;;;;;;;;;;4918990;29;20044;-71
2022/10/27 14:12:44;;;;;;;10.13;4.32;;;;;;;;;;4918779;29;20040;-71
2022/10/27 14:15:25;;;;;;;8.52;4.28;;;;;;;;;;4918359;29;20095;-71
2022/10/27 14:17:54;;;;;;;12.98;4.55;;;;;;;;;;4918664;29;20095;-72
2022/10/27 14:20:21;;;;;;;8.75;4.05;;;;;;;;;;4918795;29;20135;-70
2022/10/27 14:22:50;;;;;;;12.75;5.00;;;;;;;;;;4918813;29;20080;-70
2022/10/27 14:25:26;;;;;;;6.88;3.90;;;;;;;;;;4914588;29;20148;-70
2022/10/27 14:27:53;;;;;;;;;;;;;;;;;;4917552;29;20434;-70
2022/10/27 14:30:22;;;;;;;11.82;4.88;;;;;;;;;;4918582;29;19987;-69
2022/10/27 14:32:49;;;;;;;11.95;4.88;;;;;;;;;;4918286;29;20075;-70
2022/10/27 14:35:25;;;;;;;9.93;4.78;;;;;;;;;;4918278;29;20128;-69
2022/10/27 14:37:56;;;;;;;9.43;3.88;;;;;;;;;;4917201;29;20048;-70
2022/10/27 14:40:31;;;;;;;15.20;5.47;;;;;;;;;;4917848;29;20060;-71
2022/10/27 14:42:58;;;;;;;11.95;4.95;;;;;;;;;;4904994;29;20040;-69
2022/10/27 14:45:26;;;;;;;11.90;4.50;;;;;;;;;;4916991;29;20071;-70
2022/10/27 14:48:01;;;;;;;11.70;4.07;;;;;;;;;;4917964;29;20044;-70
2022/10/27 14:50:41;;;;;;;8.40;3.75;;;;;;;;;;4918225;29;20131;-70
2022/10/27 14:53:22;;;;;;;12.23;5.00;;;;;;;;;;4918195;29;20048;-70